createdAt,value
2022-07-31T00:00:21.374Z,20.80
2022-07-31T00:04:25.786Z,20.58
2022-07-31T00:08:31.030Z,20.80
2022-07-31T00:12:36.208Z,20.55
2022-07-31T00:16:40.258Z,20.45
2022-07-31T00:20:46.636Z,20.71
2022-07-31T00:24:51.618Z,20.55
2022-07-31T00:28:57.617Z,20.73
2022-07-31T00:33:01.572Z,20.51
2022-07-31T00:37:05.407Z,20.57
2022-07-31T00:41:10.969Z,20.72
2022-07-31T00:45:14.264Z,20.72
2022-07-31T00:49:18.898Z,20.64
2022-07-31T00:53:22.433Z,20.75
2022-07-31T00:57:30.260Z,20.81
2022-07-31T01:01:34.588Z,20.53
2022-07-31T01:05:37.984Z,20.81
2022-07-31T01:09:42.309Z,20.76
2022-07-31T01:13:52.006Z,20.72
2022-07-31T01:17:57.092Z,20.56
2022-07-31T01:22:33.204Z,20.62
2022-07-31T01:26:48.063Z,20.77
2022-07-31T01:31:17.126Z,20.52
2022-07-31T01:35:27.127Z,20.44
2022-07-31T01:39:35.286Z,20.64
2022-07-31T01:43:42.150Z,20.73
2022-07-31T01:47:52.098Z,20.73
2022-07-31T01:52:04.295Z,20.47
2022-07-31T01:56:10.579Z,20.61
2022-07-31T02:00:34.581Z,20.71
2022-07-31T02:04:41.541Z,20.67
2022-07-31T02:08:46.757Z,20.57
2022-07-31T02:12:57.134Z,20.66
2022-07-31T02:17:02.315Z,20.62
2022-07-31T02:21:07.422Z,20.29
2022-07-31T02:25:13.349Z,20.61
2022-07-31T02:29:20.104Z,20.45
2022-07-31T02:33:27.489Z,20.63
2022-07-31T02:37:36.268Z,20.44
2022-07-31T02:41:40.280Z,20.51
2022-07-31T02:45:44.407Z,20.57
2022-07-31T02:49:48.468Z,20.50
2022-07-31T02:53:54.165Z,20.47
2022-07-31T02:57:57.814Z,20.28
2022-07-31T03:02:02.111Z,20.39
2022-07-31T03:06:08.543Z,20.34
2022-07-31T03:10:15.978Z,19.84
2022-07-31T03:14:21.587Z,20.21
2022-07-31T03:18:27.843Z,20.13
2022-07-31T03:22:31.471Z,19.75
2022-07-31T03:26:38.537Z,19.88
2022-07-31T03:30:42.362Z,19.87
2022-07-31T03:34:45.751Z,19.57
2022-07-31T03:38:50.795Z,19.73
2022-07-31T03:42:58.028Z,19.64
2022-07-31T03:47:01.846Z,19.53
2022-07-31T03:51:06.562Z,19.30
2022-07-31T03:55:11.200Z,19.04
2022-07-31T03:59:17.526Z,19.29
2022-07-31T04:03:21.861Z,19.25
2022-07-31T04:07:27.374Z,19.08
2022-07-31T04:11:31.674Z,19.28
2022-07-31T04:15:39.489Z,19.33
2022-07-31T04:19:43.374Z,19.35
2022-07-31T04:23:49.545Z,19.43
2022-07-31T04:27:53.665Z,19.19
2022-07-31T04:31:59.267Z,19.31
2022-07-31T04:36:03.222Z,19.27
2022-07-31T04:40:07.085Z,19.65
2022-07-31T04:44:11.689Z,19.71
2022-07-31T04:48:16.301Z,19.77
2022-07-31T04:52:20.367Z,19.84
2022-07-31T04:56:36.798Z,19.88
2022-07-31T05:00:40.512Z,19.96
2022-07-31T05:04:45.701Z,20.00
2022-07-31T05:08:55.924Z,20.06
2022-07-31T05:12:59.581Z,20.15
2022-07-31T05:17:03.200Z,20.27
2022-07-31T05:21:07.973Z,20.42
2022-07-31T05:25:11.470Z,20.54
2022-07-31T05:29:14.771Z,20.70
2022-07-31T05:33:18.678Z,20.86
2022-07-31T05:37:23.952Z,21.08
2022-07-31T05:41:27.367Z,21.28
2022-07-31T05:45:30.655Z,21.46
2022-07-31T05:49:34.186Z,21.63
2022-07-31T05:53:38.809Z,21.73
2022-07-31T05:57:43.859Z,21.77
2022-07-31T06:01:47.508Z,21.78
2022-07-31T06:05:51.434Z,21.77
2022-07-31T06:09:56.071Z,21.82
2022-07-31T06:13:59.826Z,21.86
2022-07-31T06:18:03.363Z,21.92
2022-07-31T06:22:06.826Z,22.01
2022-07-31T06:26:12.372Z,22.10
2022-07-31T06:30:16.726Z,22.20
2022-07-31T06:34:20.135Z,22.34
2022-07-31T06:38:25.244Z,22.50
2022-07-31T06:42:30.264Z,22.73
2022-07-31T06:46:33.503Z,22.94
2022-07-31T06:50:36.904Z,23.07
2022-07-31T06:54:40.237Z,23.05
2022-07-31T06:58:45.038Z,22.99
2022-07-31T07:02:48.700Z,22.93
2022-07-31T07:06:51.894Z,22.88
2022-07-31T07:10:55.255Z,22.86
2022-07-31T07:14:59.722Z,22.96
2022-07-31T07:19:03.562Z,23.26
2022-07-31T07:23:07.167Z,23.76
2022-07-31T07:27:10.822Z,24.40
2022-07-31T07:31:15.831Z,25.03
2022-07-31T07:35:18.995Z,25.56
2022-07-31T07:39:22.179Z,26.07
2022-07-31T07:43:25.645Z,26.52
2022-07-31T07:48:05.099Z,26.86
2022-07-31T07:51:58.997Z,27.21
2022-07-31T07:56:03.643Z,27.57
2022-07-31T08:00:10.244Z,27.94
2022-07-31T08:04:14.820Z,28.31
2022-07-31T08:08:18.515Z,28.60
2022-07-31T08:12:22.210Z,28.91
2022-07-31T08:16:25.536Z,29.20
2022-07-31T08:20:30.345Z,29.49
2022-07-31T08:24:34.014Z,29.76
2022-07-31T08:28:37.396Z,29.97
2022-07-31T08:32:41.015Z,30.01
2022-07-31T08:36:46.122Z,30.16
2022-07-31T08:40:49.404Z,30.21
2022-07-31T08:44:52.938Z,30.32
2022-07-31T08:48:58.818Z,30.39
2022-07-31T08:53:04.685Z,30.46
2022-07-31T08:57:12.778Z,30.51
2022-07-31T09:01:17.097Z,30.60
2022-07-31T09:05:20.698Z,30.68
2022-07-31T09:09:26.081Z,30.72
2022-07-31T09:14:02.189Z,30.69
2022-07-31T09:18:17.625Z,30.73
2022-07-31T09:22:22.768Z,30.86
2022-07-31T09:26:36.272Z,30.93
2022-07-31T09:30:56.128Z,31.08
2022-07-31T09:35:09.173Z,31.23
2022-07-31T09:39:26.951Z,31.27
2022-07-31T09:43:33.101Z,31.32
2022-07-31T09:47:36.692Z,31.40
2022-07-31T09:51:41.540Z,31.55
2022-07-31T09:55:50.985Z,31.68
2022-07-31T09:59:56.821Z,31.76
2022-07-31T10:04:04.352Z,31.84
2022-07-31T10:08:08.226Z,31.81
2022-07-31T10:12:20.584Z,31.80
2022-07-31T10:16:29.782Z,31.84
2022-07-31T10:20:36.033Z,31.85
2022-07-31T10:24:48.824Z,31.91
2022-07-31T10:28:52.597Z,31.91
2022-07-31T10:32:58.748Z,31.93
2022-07-31T10:37:11.098Z,31.96
2022-07-31T10:41:23.073Z,32.03
2022-07-31T10:45:27.214Z,31.99
2022-07-31T10:49:42.766Z,31.91
2022-07-31T10:53:56.036Z,31.87
2022-07-31T10:58:08.986Z,31.96
2022-07-31T11:02:21.798Z,31.93
2022-07-31T11:06:41.472Z,31.85
2022-07-31T11:11:03.632Z,31.63
2022-07-31T11:15:19.803Z,31.38
2022-07-31T11:19:23.406Z,31.04
2022-07-31T11:23:32.161Z,30.81
2022-07-31T11:27:36.426Z,30.76
2022-07-31T11:31:39.488Z,30.80
2022-07-31T11:35:43.474Z,30.91
2022-07-31T11:39:52.472Z,31.14
2022-07-31T11:43:57.617Z,31.34
2022-07-31T11:48:10.942Z,31.41
2022-07-31T11:52:30.756Z,31.46
2022-07-31T11:56:41.472Z,31.42
2022-07-31T12:00:50.065Z,31.29
2022-07-31T12:04:53.818Z,30.98
2022-07-31T12:08:57.546Z,30.79
2022-07-31T12:13:03.617Z,30.70
2022-07-31T12:17:08.559Z,30.74
2022-07-31T12:21:12.367Z,30.83
2022-07-31T12:25:15.922Z,30.90
2022-07-31T12:29:21.786Z,31.02
2022-07-31T12:33:25.384Z,31.11
2022-07-31T12:37:28.452Z,31.23
2022-07-31T12:41:33.149Z,31.31
2022-07-31T12:45:40.376Z,31.36
2022-07-31T12:49:43.501Z,31.30
2022-07-31T12:53:47.218Z,31.23
2022-07-31T12:57:52.213Z,31.25
2022-07-31T13:01:57.778Z,31.08
2022-07-31T13:06:01.187Z,30.89
2022-07-31T13:10:19.868Z,30.74
2022-07-31T13:14:25.912Z,30.64
2022-07-31T13:18:32.537Z,30.64
2022-07-31T13:22:36.254Z,30.70
2022-07-31T13:26:39.581Z,30.88
2022-07-31T13:30:43.392Z,31.04
2022-07-31T13:34:48.375Z,31.16
2022-07-31T13:39:11.970Z,31.28
2022-07-31T13:43:15.942Z,31.27
2022-07-31T13:47:19.051Z,31.15
2022-07-31T13:51:28.559Z,30.90
2022-07-31T13:55:32.286Z,30.68
2022-07-31T13:59:36.722Z,30.51
2022-07-31T14:03:39.994Z,30.39
2022-07-31T14:07:47.916Z,30.34
2022-07-31T14:11:56.119Z,30.34
2022-07-31T14:15:59.391Z,30.27
2022-07-31T14:20:02.840Z,30.18
2022-07-31T14:24:08.462Z,30.08
2022-07-31T14:28:12.605Z,29.96
2022-07-31T14:32:15.925Z,29.89
2022-07-31T14:36:19.440Z,29.86
2022-07-31T14:40:24.514Z,29.85
2022-07-31T14:44:28.923Z,29.85
2022-07-31T14:48:32.290Z,29.89
2022-07-31T14:52:35.711Z,29.86
2022-07-31T14:57:00.425Z,29.84
2022-07-31T15:01:04.376Z,29.94
2022-07-31T15:06:40.139Z,30.10
2022-07-31T15:09:32.671Z,30.31
2022-07-31T15:13:38.977Z,30.47
2022-07-31T15:17:42.826Z,30.63
2022-07-31T15:22:15.728Z,30.88
2022-07-31T15:26:10.550Z,31.27
2022-07-31T15:30:15.884Z,31.63
2022-07-31T15:34:19.556Z,31.85
2022-07-31T15:38:23.566Z,31.92
2022-07-31T15:42:27.007Z,31.80
2022-07-31T15:46:32.218Z,31.59
2022-07-31T15:50:35.652Z,31.32
2022-07-31T15:54:39.479Z,31.02
2022-07-31T15:58:43.268Z,30.84
2022-07-31T16:02:48.169Z,30.72
2022-07-31T16:06:51.922Z,30.63
2022-07-31T16:10:55.881Z,30.59
2022-07-31T16:14:59.713Z,30.59
2022-07-31T16:19:05.216Z,30.57
2022-07-31T16:23:14.114Z,30.47
2022-07-31T16:27:17.972Z,30.38
2022-07-31T16:31:30.728Z,30.16
2022-07-31T16:35:35.770Z,30.22
2022-07-31T16:39:39.232Z,30.34
2022-07-31T16:43:49.594Z,30.29
2022-07-31T16:47:54.209Z,30.22
2022-07-31T16:51:59.066Z,30.14
2022-07-31T16:57:06.976Z,29.98
2022-07-31T17:02:17.221Z,29.77
2022-07-31T17:08:05.556Z,29.22
2022-07-31T17:12:53.308Z,29.33
2022-07-31T17:18:32.481Z,29.08
2022-07-31T17:23:43.691Z,28.95
2022-07-31T17:28:28.105Z,29.06
2022-07-31T17:38:04.083Z,28.29
2022-07-31T17:42:09.637Z,28.33
2022-07-31T17:46:17.626Z,28.20
2022-07-31T17:50:31.993Z,28.01
2022-07-31T17:54:35.531Z,27.85
2022-07-31T17:58:40.658Z,27.69
2022-07-31T18:02:44.200Z,27.53
2022-07-31T18:06:51.402Z,27.42
2022-07-31T18:10:57.579Z,27.33
2022-07-31T18:15:02.929Z,27.23
2022-07-31T18:19:06.361Z,27.13
2022-07-31T18:23:10.078Z,26.98
2022-07-31T18:27:13.535Z,26.85
2022-07-31T18:31:32.281Z,26.75
2022-07-31T18:35:39.300Z,26.60
2022-07-31T18:39:48.183Z,26.50
2022-07-31T18:43:52.821Z,26.38
2022-07-31T18:47:57.633Z,26.27
2022-07-31T18:52:01.295Z,26.16
2022-07-31T18:56:05.553Z,26.06
2022-07-31T19:00:11.243Z,25.96
2022-07-31T19:04:16.531Z,25.87
2022-07-31T19:08:20.296Z,25.82
2022-07-31T19:12:24.205Z,25.72
2022-07-31T19:16:29.204Z,25.72
2022-07-31T19:20:56.450Z,25.69
2022-07-31T19:24:58.668Z,25.64
2022-07-31T19:29:02.000Z,25.60
2022-07-31T19:33:05.978Z,25.55
2022-07-31T19:37:11.120Z,25.48
2022-07-31T19:41:16.373Z,25.46
2022-07-31T19:45:20.038Z,25.41
2022-07-31T19:49:23.371Z,25.43
2022-07-31T19:53:28.453Z,25.43
2022-07-31T19:57:32.109Z,25.41
2022-07-31T20:01:35.785Z,25.40
2022-07-31T20:05:39.420Z,25.37
2022-07-31T20:09:44.426Z,25.35
2022-07-31T20:13:48.234Z,25.34
2022-07-31T20:17:52.155Z,25.33
2022-07-31T20:21:55.802Z,25.29
2022-07-31T20:26:00.794Z,25.33
2022-07-31T20:30:04.912Z,25.33
2022-07-31T20:34:08.588Z,25.36
2022-07-31T20:38:15.750Z,25.38
2022-07-31T20:42:21.117Z,25.37
2022-07-31T20:46:24.519Z,25.38
2022-07-31T20:50:28.332Z,25.38
2022-07-31T20:54:34.597Z,25.35
2022-07-31T20:58:41.580Z,25.35
2022-07-31T21:02:47.190Z,25.30
2022-07-31T21:06:53.009Z,25.27
2022-07-31T21:10:56.723Z,25.22
2022-07-31T21:15:18.779Z,25.20
2022-07-31T21:19:34.058Z,25.17
2022-07-31T21:23:37.366Z,25.14
2022-07-31T21:27:43.116Z,25.09
2022-07-31T21:31:50.234Z,25.04
2022-07-31T21:35:53.658Z,24.99
2022-07-31T21:39:57.790Z,24.92
2022-07-31T21:44:01.606Z,24.84
2022-07-31T21:48:11.592Z,24.81
2022-07-31T21:52:18.129Z,24.74
2022-07-31T21:56:21.673Z,24.69
2022-07-31T22:00:26.240Z,24.67
2022-07-31T22:04:34.742Z,24.65
2022-07-31T22:08:38.669Z,24.64
2022-07-31T22:12:41.929Z,24.61
2022-07-31T22:16:45.590Z,24.60
2022-07-31T22:20:51.119Z,24.55
2022-07-31T22:24:55.208Z,24.48
2022-07-31T22:28:59.596Z,24.33
2022-07-31T22:33:03.765Z,24.33
2022-07-31T22:37:09.938Z,24.27
2022-07-31T22:41:15.483Z,24.22
2022-07-31T22:45:19.540Z,24.19
2022-07-31T22:49:23.960Z,24.16
2022-07-31T22:53:29.001Z,24.13
2022-07-31T22:57:32.481Z,24.09
2022-07-31T23:01:36.161Z,24.06
2022-07-31T23:06:03.633Z,24.03
2022-07-31T23:10:05.327Z,24.01
2022-07-31T23:14:09.094Z,23.99
2022-07-31T23:18:12.130Z,23.96
2022-07-31T23:22:15.976Z,23.94
2022-07-31T23:26:24.604Z,23.94
2022-07-31T23:30:27.621Z,23.92
2022-07-31T23:34:31.109Z,23.91
2022-07-31T23:38:34.213Z,23.92
2022-07-31T23:42:42.253Z,23.94
2022-07-31T23:46:45.380Z,23.94
2022-07-31T23:50:53.129Z,23.94
2022-07-31T23:54:56.255Z,23.95
2022-07-31T23:59:01.193Z,23.95
